sensor_id;sensor_type;location;lat;lon;timestamp;pressure;altitude;pressure_sealevel;temperature;humidity
9289;BME280;4683;50.864;12.086;2023-02-02T00:01:52;98997.16;;;4.11;100.00
9289;BME280;4683;50.864;12.086;2023-02-02T00:04:26;98999.06;;;4.18;100.00
9289;BME280;4683;50.864;12.086;2023-02-02T00:06:55;98993.72;;;4.10;100.00
9289;BME280;4683;50.864;12.086;2023-02-02T00:09:27;99000.13;;;4.25;100.00
9289;BME280;4683;50.864;12.086;2023-02-02T00:11:57;98996.56;;;4.36;100.00
9289;BME280;4683;50.864;12.086;2023-02-02T00:14:26;98999.44;;;4.33;100.00
9289;BME280;4683;50.864;12.086;2023-02-02T00:16:55;99010.31;;;4.28;100.00
9289;BME280;4683;50.864;12.086;2023-02-02T00:19:27;99015.00;;;4.25;100.00
9289;BME280;4683;50.864;12.086;2023-02-02T00:21:57;99013.91;;;4.27;100.00
9289;BME280;4683;50.864;12.086;2023-02-02T00:24:26;99007.94;;;4.35;100.00
9289;BME280;4683;50.864;12.086;2023-02-02T00:26:58;99014.84;;;4.36;100.00
9289;BME280;4683;50.864;12.086;2023-02-02T00:29:29;99012.22;;;4.26;100.00
9289;BME280;4683;50.864;12.086;2023-02-02T00:31:58;99022.97;;;4.23;100.00
9289;BME280;4683;50.864;12.086;2023-02-02T00:34:28;99026.94;;;4.27;100.00
9289;BME280;4683;50.864;12.086;2023-02-02T00:36:57;99016.63;;;4.26;100.00
9289;BME280;4683;50.864;12.086;2023-02-02T00:39:26;99019.66;;;4.21;100.00
9289;BME280;4683;50.864;12.086;2023-02-02T00:41:55;99024.75;;;4.23;100.00
9289;BME280;4683;50.864;12.086;2023-02-02T00:44:25;99028.16;;;4.33;100.00
9289;BME280;4683;50.864;12.086;2023-02-02T00:47:10;99020.97;;;4.45;100.00
9289;BME280;4683;50.864;12.086;2023-02-02T00:49:40;99026.91;;;4.37;100.00
9289;BME280;4683;50.864;12.086;2023-02-02T00:52:09;99031.16;;;4.38;100.00
9289;BME280;4683;50.864;12.086;2023-02-02T00:54:39;99030.66;;;4.62;100.00
9289;BME280;4683;50.864;12.086;2023-02-02T00:57:08;99025.09;;;4.47;100.00
9289;BME280;4683;50.864;12.086;2023-02-02T00:59:40;99029.72;;;4.53;100.00
9289;BME280;4683;50.864;12.086;2023-02-02T01:02:09;99027.28;;;4.52;100.00
9289;BME280;4683;50.864;12.086;2023-02-02T01:04:48;99039.13;;;4.46;100.00
9289;BME280;4683;50.864;12.086;2023-02-02T01:07:18;99035.66;;;4.55;100.00
9289;BME280;4683;50.864;12.086;2023-02-02T01:09:51;99044.63;;;4.43;100.00
9289;BME280;4683;50.864;12.086;2023-02-02T01:12:20;99041.28;;;4.61;100.00
9289;BME280;4683;50.864;12.086;2023-02-02T01:14:54;99039.09;;;4.56;100.00
9289;BME280;4683;50.864;12.086;2023-02-02T01:17:23;99048.16;;;4.52;100.00
9289;BME280;4683;50.864;12.086;2023-02-02T01:19:56;99047.34;;;4.51;100.00
9289;BME280;4683;50.864;12.086;2023-02-02T01:22:25;99047.03;;;4.64;100.00
9289;BME280;4683;50.864;12.086;2023-02-02T01:24:56;99036.88;;;4.61;100.00
9289;BME280;4683;50.864;12.086;2023-02-02T01:27:26;99041.56;;;4.48;100.00
9289;BME280;4683;50.864;12.086;2023-02-02T01:29:58;99030.03;;;4.50;100.00
9289;BME280;4683;50.864;12.086;2023-02-02T01:32:33;99038.00;;;4.49;100.00
9289;BME280;4683;50.864;12.086;2023-02-02T01:35:11;99037.59;;;4.44;100.00
9289;BME280;4683;50.864;12.086;2023-02-02T01:37:40;99047.38;;;4.42;100.00
9289;BME280;4683;50.864;12.086;2023-02-02T01:45:01;99049.25;;;4.59;100.00
9289;BME280;4683;50.864;12.086;2023-02-02T01:47:37;99055.72;;;4.55;100.00
9289;BME280;4683;50.864;12.086;2023-02-02T01:50:10;99059.00;;;4.57;100.00
9289;BME280;4683;50.864;12.086;2023-02-02T01:52:42;99068.38;;;4.60;100.00
9289;BME280;4683;50.864;12.086;2023-02-02T01:55:15;99059.72;;;4.59;100.00
9289;BME280;4683;50.864;12.086;2023-02-02T01:57:51;99060.25;;;4.53;100.00
9289;BME280;4683;50.864;12.086;2023-02-02T02:00:23;99064.63;;;4.62;100.00
9289;BME280;4683;50.864;12.086;2023-02-02T02:02:57;99059.00;;;4.57;100.00
9289;BME280;4683;50.864;12.086;2023-02-02T02:05:35;99067.44;;;4.51;100.00
9289;BME280;4683;50.864;12.086;2023-02-02T02:08:14;99066.84;;;4.57;100.00
9289;BME280;4683;50.864;12.086;2023-02-02T02:10:46;99066.59;;;4.50;100.00
9289;BME280;4683;50.864;12.086;2023-02-02T02:13:16;99057.66;;;4.53;100.00
9289;BME280;4683;50.864;12.086;2023-02-02T02:15:53;99062.47;;;4.48;100.00
9289;BME280;4683;50.864;12.086;2023-02-02T02:18:51;99066.59;;;4.50;100.00
9289;BME280;4683;50.864;12.086;2023-02-02T02:21:41;99067.56;;;4.40;100.00
9289;BME280;4683;50.864;12.086;2023-02-02T02:25:32;99074.75;;;4.38;100.00
9289;BME280;4683;50.864;12.086;2023-02-02T02:29:25;99066.06;;;4.47;100.00
9289;BME280;4683;50.864;12.086;2023-02-02T02:32:30;99073.19;;;4.54;100.00
9289;BME280;4683;50.864;12.086;2023-02-02T02:35:31;99076.22;;;4.50;100.00
9289;BME280;4683;50.864;12.086;2023-02-02T02:38:17;99073.44;;;4.61;100.00
9289;BME280;4683;50.864;12.086;2023-02-02T02:41:15;99072.06;;;4.57;100.00
9289;BME280;4683;50.864;12.086;2023-02-02T02:44:09;99072.25;;;4.46;100.00
9289;BME280;4683;50.864;12.086;2023-02-02T02:46:58;99079.50;;;4.52;100.00
9289;BME280;4683;50.864;12.086;2023-02-02T02:49:48;99081.88;;;4.45;100.00
9289;BME280;4683;50.864;12.086;2023-02-02T02:52:38;99077.91;;;4.31;100.00
9289;BME280;4683;50.864;12.086;2023-02-02T02:55:36;99078.59;;;4.33;100.00
9289;BME280;4683;50.864;12.086;2023-02-02T02:58:10;99081.34;;;4.42;100.00
9289;BME280;4683;50.864;12.086;2023-02-02T03:01:01;99071.16;;;4.39;100.00
9289;BME280;4683;50.864;12.086;2023-02-02T03:03:59;99070.47;;;4.37;100.00
9289;BME280;4683;50.864;12.086;2023-02-02T03:06:38;99062.38;;;4.30;100.00
9289;BME280;4683;50.864;12.086;2023-02-02T03:09:11;99057.56;;;4.25;100.00
9289;BME280;4683;50.864;12.086;2023-02-02T03:11:40;99063.59;;;4.36;100.00
9289;BME280;4683;50.864;12.086;2023-02-02T03:14:08;99069.22;;;4.31;100.00
9289;BME280;4683;50.864;12.086;2023-02-02T03:16:37;99065.53;;;4.33;100.00
9289;BME280;4683;50.864;12.086;2023-02-02T03:19:07;99071.31;;;4.27;100.00
9289;BME280;4683;50.864;12.086;2023-02-02T03:21:37;99065.50;;;4.43;100.00
9289;BME280;4683;50.864;12.086;2023-02-02T03:24:06;99065.78;;;4.40;100.00
9289;BME280;4683;50.864;12.086;2023-02-02T03:26:35;99075.81;;;4.45;100.00
9289;BME280;4683;50.864;12.086;2023-02-02T03:29:04;99067.44;;;4.41;100.00
9289;BME280;4683;50.864;12.086;2023-02-02T03:31:32;99073.50;;;4.42;100.00
9289;BME280;4683;50.864;12.086;2023-02-02T03:34:00;99067.47;;;4.31;100.00
9289;BME280;4683;50.864;12.086;2023-02-02T03:36:30;99080.94;;;4.37;100.00
9289;BME280;4683;50.864;12.086;2023-02-02T03:39:00;99078.41;;;4.45;100.00
9289;BME280;4683;50.864;12.086;2023-02-02T03:41:28;99078.41;;;4.45;100.00
9289;BME280;4683;50.864;12.086;2023-02-02T03:43:56;99068.41;;;4.50;100.00
9289;BME280;4683;50.864;12.086;2023-02-02T03:46:25;99073.31;;;4.53;100.00
9289;BME280;4683;50.864;12.086;2023-02-02T03:48:53;99068.41;;;4.50;100.00
9289;BME280;4683;50.864;12.086;2023-02-02T03:51:21;99060.00;;;4.46;100.00
9289;BME280;4683;50.864;12.086;2023-02-02T03:53:49;99067.31;;;4.43;100.00
9289;BME280;4683;50.864;12.086;2023-02-02T03:56:19;99059.75;;;4.40;100.00
9289;BME280;4683;50.864;12.086;2023-02-02T03:58:47;99067.03;;;4.46;100.00
9289;BME280;4683;50.864;12.086;2023-02-02T04:01:15;99076.50;;;4.47;100.00
9289;BME280;4683;50.864;12.086;2023-02-02T04:03:43;99067.53;;;4.59;100.00
9289;BME280;4683;50.864;12.086;2023-02-02T04:06:12;99066.59;;;4.50;100.00
9289;BME280;4683;50.864;12.086;2023-02-02T04:08:41;99068.41;;;4.50;100.00
9289;BME280;4683;50.864;12.086;2023-02-02T04:11:10;99078.25;;;4.56;100.00
9289;BME280;4683;50.864;12.086;2023-02-02T04:13:40;99082.13;;;4.52;100.00
9289;BME280;4683;50.864;12.086;2023-02-02T04:16:09;99090.38;;;4.47;100.00
9289;BME280;4683;50.864;12.086;2023-02-02T04:18:38;99094.94;;;4.45;100.00
9289;BME280;4683;50.864;12.086;2023-02-02T04:21:07;99103.84;;;4.43;100.00
9289;BME280;4683;50.864;12.086;2023-02-02T04:23:36;99110.44;;;4.47;100.00
9289;BME280;4683;50.864;12.086;2023-02-02T04:26:05;99113.19;;;4.55;100.00
9289;BME280;4683;50.864;12.086;2023-02-02T04:28:33;99114.13;;;4.54;100.00
9289;BME280;4683;50.864;12.086;2023-02-02T04:31:03;99111.94;;;4.59;100.00
9289;BME280;4683;50.864;12.086;2023-02-02T04:33:33;99125.28;;;4.56;100.00
9289;BME280;4683;50.864;12.086;2023-02-02T04:36:03;99117.19;;;4.59;100.00
9289;BME280;4683;50.864;12.086;2023-02-02T04:38:31;99121.53;;;4.58;100.00
9289;BME280;4683;50.864;12.086;2023-02-02T04:41:05;99130.09;;;4.61;100.00
9289;BME280;4683;50.864;12.086;2023-02-02T04:43:35;99132.31;;;4.46;100.00
9289;BME280;4683;50.864;12.086;2023-02-02T04:46:05;99128.16;;;4.53;100.00
9289;BME280;4683;50.864;12.086;2023-02-02T04:48:33;99139.72;;;4.50;100.00
9289;BME280;4683;50.864;12.086;2023-02-02T04:51:03;99125.94;;;4.58;100.00
9289;BME280;4683;50.864;12.086;2023-02-02T04:53:32;99136.81;;;4.53;100.00
9289;BME280;4683;50.864;12.086;2023-02-02T04:56:05;99138.75;;;4.51;100.00
9289;BME280;4683;50.864;12.086;2023-02-02T04:58:34;99146.88;;;4.39;100.00
9289;BME280;4683;50.864;12.086;2023-02-02T05:01:10;99152.91;;;4.49;100.00
9289;BME280;4683;50.864;12.086;2023-02-02T05:03:39;99160.91;;;4.47;100.00
9289;BME280;4683;50.864;12.086;2023-02-02T05:06:07;99168.03;;;4.36;100.00
9289;BME280;4683;50.864;12.086;2023-02-02T05:08:38;99160.06;;;4.47;100.00
9289;BME280;4683;50.864;12.086;2023-02-02T05:11:10;99161.56;;;4.40;100.00
9289;BME280;4683;50.864;12.086;2023-02-02T05:13:39;99157.88;;;4.42;100.00
9289;BME280;4683;50.864;12.086;2023-02-02T05:16:08;99163.91;;;4.43;100.00
9289;BME280;4683;50.864;12.086;2023-02-02T05:18:37;99177.53;;;4.56;100.00
9289;BME280;4683;50.864;12.086;2023-02-02T05:21:05;99181.53;;;4.50;100.00
9289;BME280;4683;50.864;12.086;2023-02-02T05:23:34;99173.94;;;4.57;100.00
9289;BME280;4683;50.864;12.086;2023-02-02T05:26:02;99178.63;;;4.44;100.00
9289;BME280;4683;50.864;12.086;2023-02-02T05:28:31;99192.06;;;4.58;100.00
9289;BME280;4683;50.864;12.086;2023-02-02T05:31:05;99190.59;;;4.56;100.00
9289;BME280;4683;50.864;12.086;2023-02-02T05:33:35;99197.44;;;4.57;100.00
9289;BME280;4683;50.864;12.086;2023-02-02T05:36:05;99192.63;;;4.62;100.00
9289;BME280;4683;50.864;12.086;2023-02-02T05:38:34;99189.59;;;4.67;100.00
9289;BME280;4683;50.864;12.086;2023-02-02T05:41:03;99190.84;;;4.53;100.00
9289;BME280;4683;50.864;12.086;2023-02-02T05:43:32;99194.28;;;4.53;100.00
9289;BME280;4683;50.864;12.086;2023-02-02T05:46:01;99196.38;;;4.50;100.00
9289;BME280;4683;50.864;12.086;2023-02-02T05:48:29;99204.03;;;4.61;100.00
9289;BME280;4683;50.864;12.086;2023-02-02T05:51:04;99207.34;;;4.53;100.00
9289;BME280;4683;50.864;12.086;2023-02-02T05:53:33;99202.81;;;4.65;100.00
9289;BME280;4683;50.864;12.086;2023-02-02T05:56:02;99206.81;;;4.60;100.00
9289;BME280;4683;50.864;12.086;2023-02-02T05:58:31;99208.72;;;4.48;100.00
9289;BME280;4683;50.864;12.086;2023-02-02T06:00:59;99209.53;;;4.58;100.00
9289;BME280;4683;50.864;12.086;2023-02-02T06:03:27;99199.91;;;4.58;100.00
9289;BME280;4683;50.864;12.086;2023-02-02T06:05:58;99206.00;;;4.59;100.00
9289;BME280;4683;50.864;12.086;2023-02-02T06:08:27;99212.03;;;4.69;100.00
9289;BME280;4683;50.864;12.086;2023-02-02T06:10:55;99205.44;;;4.55;100.00
9289;BME280;4683;50.864;12.086;2023-02-02T06:13:23;99210.78;;;4.54;100.00
9289;BME280;4683;50.864;12.086;2023-02-02T06:15:52;99207.22;;;4.55;100.00
9289;BME280;4683;50.864;12.086;2023-02-02T06:18:20;99216.56;;;4.48;100.00
9289;BME280;4683;50.864;12.086;2023-02-02T06:20:54;99217.78;;;4.53;100.00
9289;BME280;4683;50.864;12.086;2023-02-02T06:23:25;99220.81;;;4.68;100.00
9289;BME280;4683;50.864;12.086;2023-02-02T06:26:00;99216.97;;;4.53;100.00
9289;BME280;4683;50.864;12.086;2023-02-02T06:28:34;99226.03;;;4.58;100.00
9289;BME280;4683;50.864;12.086;2023-02-02T06:31:08;99218.09;;;4.50;100.00
9289;BME280;4683;50.864;12.086;2023-02-02T06:33:41;99230.16;;;4.61;100.00
9289;BME280;4683;50.864;12.086;2023-02-02T06:36:14;99222.59;;;4.68;100.00
9289;BME280;4683;50.864;12.086;2023-02-02T06:38:49;99229.91;;;4.64;100.00
9289;BME280;4683;50.864;12.086;2023-02-02T06:41:24;99218.34;;;4.67;100.00
9289;BME280;4683;50.864;12.086;2023-02-02T06:43:56;99227.41;;;4.63;100.00
9289;BME280;4683;50.864;12.086;2023-02-02T06:46:28;99222.75;;;4.66;100.00
9289;BME280;4683;50.864;12.086;2023-02-02T06:49:00;99235.66;;;4.77;100.00
9289;BME280;4683;50.864;12.086;2023-02-02T06:51:29;99239.53;;;4.73;100.00
9289;BME280;4683;50.864;12.086;2023-02-02T06:54:28;99240.56;;;4.90;100.00
9289;BME280;4683;50.864;12.086;2023-02-02T06:57:11;99232.91;;;4.69;100.00
9289;BME280;4683;50.864;12.086;2023-02-02T06:59:45;99244.75;;;4.73;100.00
9289;BME280;4683;50.864;12.086;2023-02-02T07:02:19;99250.38;;;4.78;100.00
9289;BME280;4683;50.864;12.086;2023-02-02T07:04:53;99248.97;;;4.94;100.00
9289;BME280;4683;50.864;12.086;2023-02-02T07:07:24;99256.53;;;4.97;100.00
9289;BME280;4683;50.864;12.086;2023-02-02T07:09:54;99252.13;;;4.97;100.00
9289;BME280;4683;50.864;12.086;2023-02-02T07:12:27;99261.06;;;4.95;100.00
9289;BME280;4683;50.864;12.086;2023-02-02T07:15:01;99262.59;;;4.97;100.00
9289;BME280;4683;50.864;12.086;2023-02-02T07:17:41;99268.38;;;5.01;100.00
9289;BME280;4683;50.864;12.086;2023-02-02T07:20:13;99262.69;;;5.15;100.00
9289;BME280;4683;50.864;12.086;2023-02-02T07:22:50;99268.38;;;5.01;100.00
9289;BME280;4683;50.864;12.086;2023-02-02T07:25:29;99268.38;;;5.01;100.00
9289;BME280;4683;50.864;12.086;2023-02-02T07:28:00;99264.78;;;5.02;100.00
9289;BME280;4683;50.864;12.086;2023-02-02T07:30:31;99266.81;;;5.08;100.00
9289;BME280;4683;50.864;12.086;2023-02-02T07:33:04;99264.63;;;5.03;100.00
9289;BME280;4683;50.864;12.086;2023-02-02T07:35:38;99266.44;;;5.03;100.00
9289;BME280;4683;50.864;12.086;2023-02-02T07:38:11;99268.06;;;5.04;100.00
9289;BME280;4683;50.864;12.086;2023-02-02T07:40:41;99269.75;;;5.05;100.00
9289;BME280;4683;50.864;12.086;2023-02-02T07:43:09;99269.44;;;5.08;100.00
9289;BME280;4683;50.864;12.086;2023-02-02T07:45:38;99276.19;;;5.11;100.00
9289;BME280;4683;50.864;12.086;2023-02-02T07:48:06;99263.94;;;5.11;100.00
9289;BME280;4683;50.864;12.086;2023-02-02T07:50:34;99272.19;;;5.16;100.00
9289;BME280;4683;50.864;12.086;2023-02-02T07:53:03;99276.88;;;5.22;100.00
9289;BME280;4683;50.864;12.086;2023-02-02T07:55:32;99280.97;;;5.25;100.00
9289;BME280;4683;50.864;12.086;2023-02-02T07:58:02;99280.94;;;5.34;100.00
9289;BME280;4683;50.864;12.086;2023-02-02T08:00:30;99280.69;;;5.38;100.00
9289;BME280;4683;50.864;12.086;2023-02-02T08:02:59;99280.69;;;5.38;100.00
9289;BME280;4683;50.864;12.086;2023-02-02T08:05:28;99286.47;;;5.31;100.00
9289;BME280;4683;50.864;12.086;2023-02-02T08:07:58;99289.34;;;5.38;100.00
9289;BME280;4683;50.864;12.086;2023-02-02T08:10:26;99284.28;;;5.37;100.00
9289;BME280;4683;50.864;12.086;2023-02-02T08:12:55;99293.56;;;5.49;100.00
9289;BME280;4683;50.864;12.086;2023-02-02T08:15:26;99288.31;;;5.58;100.00
9289;BME280;4683;50.864;12.086;2023-02-02T08:17:55;99294.97;;;5.43;100.00
9289;BME280;4683;50.864;12.086;2023-02-02T08:20:25;99306.97;;;5.46;100.00
9289;BME280;4683;50.864;12.086;2023-02-02T08:22:54;99315.31;;;5.59;100.00
9289;BME280;4683;50.864;12.086;2023-02-02T08:25:23;99309.38;;;5.57;100.00
9289;BME280;4683;50.864;12.086;2023-02-02T08:27:54;99315.56;;;5.66;100.00
9289;BME280;4683;50.864;12.086;2023-02-02T08:30:27;99314.59;;;5.67;100.00
9289;BME280;4683;50.864;12.086;2023-02-02T08:32:55;99328.81;;;5.64;100.00
9289;BME280;4683;50.864;12.086;2023-02-02T08:35:24;99317.50;;;5.64;100.00
9289;BME280;4683;50.864;12.086;2023-02-02T08:37:53;99331.69;;;5.61;100.00
9289;BME280;4683;50.864;12.086;2023-02-02T08:40:22;99329.31;;;5.68;100.00
9289;BME280;4683;50.864;12.086;2023-02-02T08:42:54;99327.25;;;5.71;100.00
9289;BME280;4683;50.864;12.086;2023-02-02T08:45:22;99332.31;;;5.82;100.00
9289;BME280;4683;50.864;12.086;2023-02-02T08:47:53;99345.41;;;5.82;100.00
9289;BME280;4683;50.864;12.086;2023-02-02T08:50:22;99352.13;;;5.85;100.00
9289;BME280;4683;50.864;12.086;2023-02-02T08:52:51;99345.28;;;5.74;100.00
9289;BME280;4683;50.864;12.086;2023-02-02T08:55:19;99341.41;;;5.78;100.00
9289;BME280;4683;50.864;12.086;2023-02-02T08:57:48;99343.84;;;5.90;100.00
9289;BME280;4683;50.864;12.086;2023-02-02T09:00:18;99355.72;;;5.94;100.00
9289;BME280;4683;50.864;12.086;2023-02-02T09:02:51;99345.63;;;5.99;100.00
9289;BME280;4683;50.864;12.086;2023-02-02T09:05:19;99346.59;;;5.98;100.00
9289;BME280;4683;50.864;12.086;2023-02-02T09:07:48;99348.22;;;6.08;100.00
9289;BME280;4683;50.864;12.086;2023-02-02T09:10:17;99346.72;;;6.06;100.00
9289;BME280;4683;50.864;12.086;2023-02-02T09:12:45;99355.16;;;6.00;100.00
9289;BME280;4683;50.864;12.086;2023-02-02T09:15:15;99355.97;;;6.00;100.00
9289;BME280;4683;50.864;12.086;2023-02-02T09:17:44;99356.81;;;6.01;100.00
9289;BME280;4683;50.864;12.086;2023-02-02T09:20:14;99368.13;;;5.92;100.00
9289;BME280;4683;50.864;12.086;2023-02-02T09:22:44;99361.56;;;6.15;100.00
9289;BME280;4683;50.864;12.086;2023-02-02T09:25:15;99361.72;;;6.04;100.00
9289;BME280;4683;50.864;12.086;2023-02-02T09:27:43;99361.84;;;6.12;100.00
9289;BME280;4683;50.864;12.086;2023-02-02T09:30:13;99369.69;;;6.12;100.00
9289;BME280;4683;50.864;12.086;2023-02-02T09:32:42;99368.50;;;6.06;100.00
9289;BME280;4683;50.864;12.086;2023-02-02T09:35:15;99369.16;;;6.08;100.00
9289;BME280;4683;50.864;12.086;2023-02-02T09:37:45;99377.56;;;6.12;100.00
9289;BME280;4683;50.864;12.086;2023-02-02T09:40:17;99378.53;;;6.11;100.00
9289;BME280;4683;50.864;12.086;2023-02-02T09:43:00;99377.47;;;5.94;100.00
9289;BME280;4683;50.864;12.086;2023-02-02T09:45:42;99381.34;;;6.00;100.00
9289;BME280;4683;50.864;12.086;2023-02-02T09:48:24;99394.56;;;5.98;100.00
9289;BME280;4683;50.864;12.086;2023-02-02T09:51:01;99391.81;;;6.00;100.00
9289;BME280;4683;50.864;12.086;2023-02-02T09:53:41;99394.00;;;5.95;100.00
9289;BME280;4683;50.864;12.086;2023-02-02T09:56:21;99390.16;;;5.89;100.00
9289;BME280;4683;50.864;12.086;2023-02-02T09:58:54;99395.53;;;5.97;100.00
9289;BME280;4683;50.864;12.086;2023-02-02T10:01:28;99400.38;;;5.92;100.00
9289;BME280;4683;50.864;12.086;2023-02-02T10:04:03;99406.72;;;5.70;100.00
9289;BME280;4683;50.864;12.086;2023-02-02T10:06:37;99408.38;;;5.71;100.00
9289;BME280;4683;50.864;12.086;2023-02-02T10:09:23;99414.72;;;5.78;100.00
9289;BME280;4683;50.864;12.086;2023-02-02T10:11:59;99417.19;;;5.70;100.00
9289;BME280;4683;50.864;12.086;2023-02-02T10:14:37;99419.41;;;5.65;100.00
9289;BME280;4683;50.864;12.086;2023-02-02T10:17:34;99422.69;;;5.67;100.00
9289;BME280;4683;50.864;12.086;2023-02-02T10:20:20;99427.69;;;5.51;100.00
9289;BME280;4683;50.864;12.086;2023-02-02T10:22:54;99424.53;;;5.38;100.00
9289;BME280;4683;50.864;12.086;2023-02-02T10:25:27;99427.41;;;5.34;100.00
9289;BME280;4683;50.864;12.086;2023-02-02T10:28:03;99434.28;;;5.35;100.00
9289;BME280;4683;50.864;12.086;2023-02-02T10:30:43;99430.44;;;5.30;100.00
9289;BME280;4683;50.864;12.086;2023-02-02T10:33:21;99436.78;;;5.37;100.00
9289;BME280;4683;50.864;12.086;2023-02-02T10:36:03;99442.13;;;5.35;100.00
9289;BME280;4683;50.864;12.086;2023-02-02T10:38:46;99432.94;;;5.31;100.00
9289;BME280;4683;50.864;12.086;2023-02-02T10:41:23;99436.50;;;5.40;100.00
9289;BME280;4683;50.864;12.086;2023-02-02T10:44:20;99433.78;;;5.32;100.00
9289;BME280;4683;50.864;12.086;2023-02-02T10:47:03;99438.16;;;5.22;100.00
9289;BME280;4683;50.864;12.086;2023-02-02T10:49:51;99441.16;;;5.17;100.00
9289;BME280;4683;50.864;12.086;2023-02-02T10:52:32;99443.53;;;5.20;100.00
9289;BME280;4683;50.864;12.086;2023-02-02T10:55:09;99443.66;;;5.28;100.00
9289;BME280;4683;50.864;12.086;2023-02-02T10:58:02;99445.88;;;5.23;100.00
9289;BME280;4683;50.864;12.086;2023-02-02T11:00:47;99439.00;;;5.22;100.00
9289;BME280;4683;50.864;12.086;2023-02-02T11:03:29;99451.22;;;5.22;100.00
9289;BME280;4683;50.864;12.086;2023-02-02T11:06:01;99449.16;;;5.25;100.00
9289;BME280;4683;50.864;12.086;2023-02-02T11:08:50;99447.38;;;5.26;100.00
9289;BME280;4683;50.864;12.086;2023-02-02T11:11:34;99449.03;;;5.17;100.00
9289;BME280;4683;50.864;12.086;2023-02-02T11:14:29;99448.50;;;5.14;100.00
9289;BME280;4683;50.864;12.086;2023-02-02T11:17:03;99455.22;;;5.26;100.00
9289;BME280;4683;50.864;12.086;2023-02-02T11:19:34;99453.16;;;5.10;100.00
9289;BME280;4683;50.864;12.086;2023-02-02T11:22:04;99446.41;;;5.17;100.00
9289;BME280;4683;50.864;12.086;2023-02-02T11:24:40;99452.19;;;5.30;100.00
9289;BME280;4683;50.864;12.086;2023-02-02T11:27:20;99459.38;;;5.38;100.00
9289;BME280;4683;50.864;12.086;2023-02-02T11:29:51;99466.50;;;5.17;100.00
9289;BME280;4683;50.864;12.086;2023-02-02T11:32:27;99468.03;;;5.09;100.00
9289;BME280;4683;50.864;12.086;2023-02-02T11:35:24;99466.22;;;5.10;100.00
9289;BME280;4683;50.864;12.086;2023-02-02T11:38:04;99465.41;;;5.09;100.00
9289;BME280;4683;50.864;12.086;2023-02-02T11:40:37;99472.56;;;5.17;100.00
9289;BME280;4683;50.864;12.086;2023-02-02T11:43:16;99473.09;;;5.21;100.00
9289;BME280;4683;50.864;12.086;2023-02-02T11:45:53;99482.75;;;5.20;100.00
9289;BME280;4683;50.864;12.086;2023-02-02T11:48:29;99486.19;;;5.21;100.00
9289;BME280;4683;50.864;12.086;2023-02-02T11:51:01;99471.47;;;5.20;100.00
9289;BME280;4683;50.864;12.086;2023-02-02T11:53:32;99489.63;;;5.21;100.00
9289;BME280;4683;50.864;12.086;2023-02-02T11:56:07;99501.88;;;5.30;100.00
9289;BME280;4683;50.864;12.086;2023-02-02T11:58:45;99504.50;;;5.30;100.00
9289;BME280;4683;50.864;12.086;2023-02-02T12:01:35;99501.59;;;5.14;100.00
9289;BME280;4683;50.864;12.086;2023-02-02T12:04:23;99503.66;;;5.20;100.00
9289;BME280;4683;50.864;12.086;2023-02-02T12:06:51;99500.13;;;5.41;100.00
9289;BME280;4683;50.864;12.086;2023-02-02T12:09:23;99507.81;;;5.32;100.00
9289;BME280;4683;50.864;12.086;2023-02-02T12:11:59;99510.16;;;5.35;100.00
9289;BME280;4683;50.864;12.086;2023-02-02T12:14:43;99497.06;;;5.35;100.00
9289;BME280;4683;50.864;12.086;2023-02-02T12:17:31;99490.59;;;5.30;100.00
9289;BME280;4683;50.864;12.086;2023-02-02T12:23:27;99499.25;;;5.11;100.00
9289;BME280;4683;50.864;12.086;2023-02-02T12:26:27;99499.66;;;5.06;100.00
9289;BME280;4683;50.864;12.086;2023-02-02T12:29:41;99502.00;;;5.09;100.00
9289;BME280;4683;50.864;12.086;2023-02-02T12:32:27;99502.94;;;5.08;100.00
9289;BME280;4683;50.864;12.086;2023-02-02T12:35:21;99495.25;;;5.17;100.00
9289;BME280;4683;50.864;12.086;2023-02-02T12:38:06;99493.22;;;5.20;100.00
9289;BME280;4683;50.864;12.086;2023-02-02T12:41:04;99493.47;;;5.17;100.00
9289;BME280;4683;50.864;12.086;2023-02-02T12:43:42;99503.69;;;5.30;100.00
9289;BME280;4683;50.864;12.086;2023-02-02T12:46:43;99491.16;;;5.33;100.00
9289;BME280;4683;50.864;12.086;2023-02-02T12:49:53;99493.63;;;5.25;100.00
9289;BME280;4683;50.864;12.086;2023-02-02T12:52:58;99489.94;;;5.38;100.00
9289;BME280;4683;50.864;12.086;2023-02-02T12:55:41;99491.31;;;5.42;100.00
9289;BME280;4683;50.864;12.086;2023-02-02T12:58:23;99489.66;;;5.50;100.00
9289;BME280;4683;50.864;12.086;2023-02-02T13:01:19;99502.88;;;5.49;100.00
9289;BME280;4683;50.864;12.086;2023-02-02T13:04:22;99490.75;;;5.48;100.00
9289;BME280;4683;50.864;12.086;2023-02-02T13:07:25;99493.50;;;5.75;100.00
9289;BME280;4683;50.864;12.086;2023-02-02T13:10:14;99496.09;;;5.85;100.00
9289;BME280;4683;50.864;12.086;2023-02-02T13:12:58;99497.63;;;5.88;100.00
9289;BME280;4683;50.864;12.086;2023-02-02T13:15:37;99509.59;;;5.80;100.00
9289;BME280;4683;50.864;12.086;2023-02-02T13:18:13;99510.84;;;5.67;100.00
9289;BME280;4683;50.864;12.086;2023-02-02T13:20:54;99522.44;;;5.64;100.00
9289;BME280;4683;50.864;12.086;2023-02-02T13:23:29;99526.56;;;5.76;100.00
9289;BME280;4683;50.864;12.086;2023-02-02T13:26:06;99536.91;;;5.68;100.00
9289;BME280;4683;50.864;12.086;2023-02-02T13:28:44;99538.09;;;5.35;100.00
9289;BME280;4683;50.864;12.086;2023-02-02T13:31:19;99534.53;;;5.36;100.00
9289;BME280;4683;50.864;12.086;2023-02-02T13:34:01;99542.09;;;5.29;100.00
9289;BME280;4683;50.864;12.086;2023-02-02T13:36:35;99547.47;;;5.38;100.00
9289;BME280;4683;50.864;12.086;2023-02-02T13:39:16;99544.72;;;5.39;100.00
9289;BME280;4683;50.864;12.086;2023-02-02T13:41:47;99545.00;;;5.46;100.00
9289;BME280;4683;50.864;12.086;2023-02-02T13:44:22;99539.88;;;5.34;100.00
9289;BME280;4683;50.864;12.086;2023-02-02T13:46:57;99561.75;;;5.24;100.00
9289;BME280;4683;50.864;12.086;2023-02-02T13:49:30;99556.81;;;5.30;100.00
9289;BME280;4683;50.864;12.086;2023-02-02T13:52:30;99573.88;;;5.34;100.00
9289;BME280;4683;50.864;12.086;2023-02-02T13:55:30;99569.22;;;5.28;100.00
9289;BME280;4683;50.864;12.086;2023-02-02T13:58:28;99577.47;;;5.33;100.00
9289;BME280;4683;50.864;12.086;2023-02-02T14:01:21;99579.66;;;5.28;100.00
9289;BME280;4683;50.864;12.086;2023-02-02T14:03:55;99580.66;;;5.47;100.00